vACC Молдова

Лого vACC Молдова
Руководство

Diomed Tintiuc

ACCMD1
Контакты

Инструкторы региона
Diomed Tintiuc (Instructor)
Включает в себя

РПИ Кишинев

Диспетчеры региона

Диспетчер Рейтинг Допуски *
Vanya Bitca Student LUKK_GND

Аэропорты региона

ICAO Город Название Погода
LUBL Бельцы Бельцы-Лядовены
LUCH Кагул Кагул
LUKK Кишинев Кишинев LUKK 121830Z 34009KT CAVOK 21/19 Q1013 NOSIG
LUBM Маркулешть Маркулешть
LUKE Et Cetera Et Cetera
LUKH Horesti National Horesti National